Logo AVAMET
Benvolgut visitant, si us plau, ingressa Recuperar contrasenya
AVAMET paisatges

Elx Vallverda Ermita Vella

Dades diàries. Acumulats / Últims 30 dies disponibles

Data Temperatura (°C) Humitat rel. (%) Pressió rel. (hPa) Vent (km/h) Precipitació
Mínima Mitjana Màxima Amplitud
tèrmica
Mínima Mitjana Màxima Mínima Mitjana Màxima Predom. Mitjana Ràfega
màxima
Total
(mm)
Índex-n
Mínima Mitjana Màxima Mínima Mitjana Màxima n
0 a 1
P0 max
mm 5'
Dades mensuals acumulades fins l'últim dia disponible
05/2020 11,5 15,0 18,8 20,7 21,4 25,9 31,8 20,3 29 71 98 1.003 1.016 1.027   3,2 40,2 31,4
Dades anuals acumulades fins l'últim dia disponible
2020 2,2 10,3 18,8 15,3 11,4 20,7 31,8 29,6 17 76 99 1.003 1.019 1.035   2,5 48,3 249,9
Últims 30 dies disponibles
31-05-2020 13,5     20,1     25,3 11,8 39 71 89 1.011 1.013 1.015 SSE 2,6 22,5 0,0
30-05-2020 14,2     20,7     25,6 11,4 43 67 86 1.013 1.015 1.016 NNW 1,9 17,7 0,0
29-05-2020 14,2     21,2     25,8 11,6 35 59 83 1.013 1.016 1.021 NNE 2,3 17,7 0,0
28-05-2020 15,5     22,1     26,1 10,6 43 63 86 1.019 1.022 1.024 NNE 7,4 40,2 0,0
27-05-2020 16,4     21,9     26,7 10,3 44 68 80 1.022 1.023 1.024 NNE 5,6 32,2 0,0
26-05-2020 15,2     21,2     25,4 10,2 52 71 86 1.022 1.024 1.025 ENE 4,7 38,6 0,0
25-05-2020 15,4     20,8     25,2 9,8 32 66 91 1.023 1.025 1.026 NNE 2,7 20,9 0,0
24-05-2020 16,8     21,9     25,5 8,7 52 75 92 1.024 1.025 1.027 NNE 4,8 25,7 0,0
23-05-2020 15,6     23,2     30,9 15,3 29 61 91 1.022 1.023 1.025 NNE 1,8 16,1 0,0
22-05-2020 16,3     22,9     30,6 14,3 37 73 98 1.020 1.022 1.024 ENE 1,6 17,7 0,0
21-05-2020 17,6     22,2     26,6 9,0 57 78 95 1.016 1.018 1.021 NNE 1,9 19,3 0,0
20-05-2020 15,4     22,0     28,3 12,9 45 74 97 1.014 1.015 1.016 ENE 1,4 16,1 0,0
19-05-2020 14,0     20,9     27,2 13,2 38 74 94 1.015 1.017 1.020 SSE 2,3 17,7 0,0
18-05-2020 13,7     19,8     24,6 10,9 63 84 96 1.018 1.020 1.022 SSE 3,7 22,5 0,0
17-05-2020 15,3     18,6     23,4 8,1 56 81 96 1.018 1.020 1.022 SSE 1,8 17,7 0,0
16-05-2020 14,1     18,6     22,8 8,7 54 75 89 1.013 1.015 1.019 ENE 1,4 16,1 0,0
15-05-2020 12,9     17,1     21,4 8,5 62 81 93 1.009 1.011 1.014 NNE 1,9 16,1 1,8
14-05-2020 13,3     17,1     22,0 8,7 49 79 96 1.003 1.005 1.009 SW 4,7 29,0 17,0
13-05-2020 11,5     18,2     22,9 11,4 46 67 89 1.004 1.006 1.007 SSE 5,0 33,8 0,0
12-05-2020 15,4     19,5     23,7 8,3 59 72 90 1.005 1.007 1.011 NNE 1,9 20,9 0,0
11-05-2020 13,6     20,1     26,0 12,4 40 63 82 1.007 1.008 1.011 SW 5,0 37,0 0,0
10-05-2020 13,9     19,8     25,8 11,9 29 68 98 1.004 1.006 1.008 WSW 3,7 33,8 12,6
09-05-2020 16,6     19,7     23,4 6,8 69 84 92 1.008 1.011 1.016 SSE 3,1 19,3 0,0
08-05-2020 15,1     20,1     23,8 8,7 60 76 90 1.012 1.014 1.016 ENE 3,7 29,0 0,0
07-05-2020 14,9     21,2     26,7 11,8 35 66 94 1.015 1.016 1.017 NNE 5,1 40,2 0,0
06-05-2020 16,3     20,6     25,4 9,1 56 81 96 1.014 1.015 1.017 NNE 2,4 19,3 0,0
05-05-2020 15,6     21,3     27,4 11,8 50 70 85 1.012 1.013 1.014 SW 1,6 19,3 0,0
04-05-2020 13,4     20,5     26,3 12,9 47 75 95 1.012 1.014 1.016 NNE 2,3 17,7 0,0
03-05-2020 15,1     21,2     27,8 12,7 46 73 91 1.015 1.017 1.018 ENE 2,4 22,5 0,0
02-05-2020 18,8     24,3     31,8 13,0 35 57 81 1.016 1.018 1.019 NW 4,8 37,0 0,0
Últims 13 mesos disponibles
04/2020 7,5 11,6 15,3 16,2 17,4 21,0 27,1 19,6 58 78 88 1.006 1.015 1.025 NNE 2,8 41,8 31,6
03/2020 6,2 10,3 15,6 14,7 11,4 19,8 26,1 19,9 43 72 91 1.008 1.016 1.024 NNE 4,5 48,3 89,6
02/2020 4,0 8,4 12,4 13,9 15,1 20,3 27,9 23,9 51 78 94 1.014 1.025 1.033 SW 1,8 27,4 5,2
01/2020 2,2 6,1 14,0 10,9 13,6 16,6 21,4 19,2 63 80 92 1.013 1.025 1.032 0,0 92,1
12/2019 5,2 9,4 15,4 13,6 14,2 18,2 22,9 17,7 46 75 91 1.005 1.018 1.032 2,8 53,1 53,4
11/2019 5,3 10,7 18,1 15,1 14,2 19,9 27,8 22,5 46 63 94 1.000 1.011 1.018 WSW 3,0 49,9 19,6
10/2019 9,6 14,4 20,3 19,5 15,9 25,3 30,1 20,5 51 78 94 1.008 1.016 1.021 WSW 0,4 32,2 45,4
09/2019 15,7 19,3 23,4 23,5 22,4 28,2 32,1 16,4 63 80 95 1.009 1.016 1.021 E 1,4 53,1 198,6
08/2019 18,4 21,2 24,5 26,3 28,2 31,4 36,1 17,7 61 75 84 1.009 1.014 1.019 E 2,0 27,4 56,8
07/2019 19,0 21,3 25,1 27,0 29,2 32,3 36,5 17,5 45 65 81 1.005 1.012 1.019 ESE 2,3 32,2 0,4
06/2019 11,2 16,1 19,9 22,5 23,9 28,0 35,9 24,7 48 69 90 1.008 1.014 1.021 ESE 2,1 35,4 0,2
05/2019 9,7 13,4 18,1 19,0 20,7 24,2 29,9 20,2 50 72 85 1.005 1.015 1.024 E 2,3 40,2 0,8
04/2019 6,5 10,6 13,9 15,6 14,8 21,2 29,6 23,1 52 72 92 999 1.012 1.025 W 2,3 40,2 130,8
Tots els anys disponibles
2019 2,2 13,5 25,1 18,8 14,2 24,3 36,5 34,3 35 71 95 997 1.016 1.032 E 2,1 53,1 525,4
Temperatura (°C)
Humitat relativa (%)
Velocitat del vent i ràfega màxima (km/h)
Direcció del vent (°)
Pressió (hPa)
Precipitació (mm)
Nota sobre les dades: s'avisa a l'usuari de la provisionalitat i no oficialitat d'aquestes dades
Logo AVAMET blanc
Web allotjada a Sollutia
Llicència de Creative CommonsLa web d'AVAMET i els seus continguts estan subjectes a una llicència de
Reconeixement - No Comercial - Compartir igual
Últimes estacions: Xodos - la Vega (Soci), la Vall d'Alba - Centre (Ajuntament soci), Chera (Ajuntament soci) - - -